Nearby METAR Reports

 

KMTN - Baltimore/Martin, Maryland, USA
Distance from station: SSE 8mi, 13km
Updated: Sun, 29-Mar-2015 11:45am EDT
Clear
Clear
 Wind from WNW
Wind: WNW 12 mph , 19 km/h
Temperature: 37°F , 3°C
Wind Chill: 29°F , -2°C
Dew Point: 10°F , -12°C
Humidity: 33%
Barometer: 30.39 inHg , 1029.1 hPa
Clouds: Clear
Visibility: 10 miles , 16 km
2015/03/29 15:45 KMTN 291545Z 29010KT 10SM SKC 03/M12 A3039
KDMH - Baltimore/Dwntwn, Maryland, USA
Distance from station: SW 12mi, 19km
Updated: Sun, 29-Mar-2015 9:54am EDT
NOT Current

 
Temperature: 32°F , 0°C
Dew Point: 7°F , -14°C
Humidity: 34%
Barometer: 30.39 inHg , 1029.1 hPa
2015/03/29 13:54 KDMH 291354Z AUTO 00/M14 A3039 RMK AO1 SLP291 T00001144
 
KBWI - Balto/Wash Intl, Maryland, USA
Distance from station: SSW 20mi, 33km
Updated: Sun, 29-Mar-2015 11:54am EDT
Clear
Clear
 Wind from N
Wind: N 8 mph , 13 km/h, Gust: 17 mph , 28 km/h
Temperature: 37°F , 3°C
Wind Chill: 31°F , -1°C
Dew Point: 5°F , -15°C
Humidity: 26%
Barometer: 30.37 inHg , 1028.4 hPa
Clouds: Clear
Visibility: 10 miles , 16 km
2015/03/29 15:54 KBWI 291554Z 01007G15KT 340V060 10SM CLR 03/M15 A3037 RMK AO2 SLP286 T00281150
KDMW - Carroll Cnty, Maryland, USA
Distance from station: WNW 30mi, 48km
Updated: Sun, 29-Mar-2015 11:50am EDT
Clear
Clear
 Wind from NW
Wind: NW 7 mph , 11 km/h
Temperature: 34°F , 1°C
Wind Chill: 28°F , -2°C
Dew Point: -0°F , -18°C
Humidity: 23%
Barometer: 30.34 inHg , 1027.4 hPa
Clouds: Clear
Visibility: 10 miles , 16 km
2015/03/29 15:50 KDMW 291550Z AUTO 32006KT 10SM CLR 01/M18 A3034 RMK AO2
 
KNAK - Annapolis/Naval, Maryland, USA
Distance from station: S 30mi, 48km
Updated: Sun, 29-Mar-2015 11:54am EDT
Clear
Clear
 Wind from NW
Wind: NW 10 mph , 17 km/h
Temperature: 36°F , 2°C
Wind Chill: 29°F , -2°C
Dew Point: 9°F , -13°C
Humidity: 32%
Barometer: 30.38 inHg , 1028.8 hPa
Clouds: Clear
Visibility: 10 miles , 16 km
2015/03/29 15:54 KNAK 291554Z AUTO 31009KT 10SM CLR 02/M13 A3038 RMK AO2 SLP289 T00221133
KW29 - Stevensville, Maryland, USA
Distance from station: SSE 31mi, 50km
Updated: Sun, 29-Mar-2015 11:51am EDT

 Wind from NNW
Wind: NNW 7 mph , 11 km/h
Temperature: 34°F , 1°C
Wind Chill: 28°F , -2°C
Dew Point: 10°F , -12°C
Humidity: 38%
Barometer: 30.39 inHg , 1029.1 hPa
Visibility: 10 miles , 16 km
2015/03/29 15:51 KW29 291551Z AUTO 33006KT 10SM 01/M12 A3039 RMK AO1
 
KCGS - College Park, Maryland, USA
Distance from station: SW 38mi, 61km
Updated: Sun, 29-Mar-2015 11:50am EDT
Clear
Clear
 Wind from W
Wind: W 7 mph , 11 km/h
Temperature: 36°F , 2°C
Wind Chill: 30°F , -1°C
Dew Point: 9°F , -13°C
Humidity: 32%
Barometer: 30.39 inHg , 1029.1 hPa
Clouds: Clear
Visibility: 10 miles , 16 km
2015/03/29 15:50 KCGS 291550Z AUTO 27006KT 10SM CLR 02/M13 A3039 RMK AO1
KGAI - Gaithersburg, Maryland, USA
Distance from station: WSW 40mi, 65km
Updated: Sun, 29-Mar-2015 11:55am EDT
Clear
Clear
 Wind from W
Wind: W 6 mph , 9 km/h
Temperature: 34°F , 1°C
Wind Chill: 29°F , -2°C
Dew Point: 9°F , -13°C
Humidity: 35%
Barometer: 30.41 inHg , 1029.8 hPa
Clouds: Clear
Visibility: 10 miles , 16 km
2015/03/29 15:55 KGAI 291555Z AUTO 26005KT 10SM CLR 01/M13 A3041 RMK AO1
 
KTHV - York, Pennsylvania, USA
Distance from station: NNW 40mi, 65km
Updated: Sun, 29-Mar-2015 11:53am EDT
Clear
Clear
 
Temperature: 36°F , 2°C
Dew Point: 9°F , -13°C
Humidity: 32%
Barometer: 30.35 inHg , 1027.8 hPa
Clouds: Clear
Visibility: 10 miles , 16 km
2015/03/29 15:53 KTHV 291553Z AUTO 10SM CLR 02/M13 A3035 RMK AO2 SLP284 T00171128
KFDK - Frederick, Maryland, USA
Distance from station: W 47mi, 75km
Updated: Sun, 29-Mar-2015 11:50am EDT
Clear
Clear
 Wind from WNW
Wind: WNW 5 mph , 7 km/h
Temperature: 37°F , 3°C
Wind Chill: 33°F , 1°C
Dew Point: -6°F , -21°C
Humidity: 15%
Barometer: 30.41 inHg , 1029.8 hPa
Clouds: Clear
Visibility: 10 miles , 16 km
2015/03/29 15:50 KFDK 291550Z 30004KT 10SM SKC 03/M21 A3041
 
KESN - Easton/Newnam, Maryland, USA
Distance from station: SSE 48mi, 78km
Updated: Sun, 29-Mar-2015 11:50am EDT
Clear
Clear
 Wind from NNW
Wind: NNW 10 mph , 17 km/h, Gust: 21 mph , 33 km/h
Temperature: 37°F , 3°C
Wind Chill: 30°F , -1°C
Dew Point: 14°F , -10°C
Humidity: 38%
Barometer: 30.41 inHg , 1029.8 hPa
Clouds: Clear
Visibility: 10 miles , 16 km
2015/03/29 15:50 KESN 291550Z 33009G18KT 10SM SKC 03/M10 A3041
KDCA - Washington/Natl, Washington D.c., USA
Distance from station: SW 49mi, 79km
Updated: Sun, 29-Mar-2015 11:52am EDT
Clear
Clear
 Wind from N
Wind: N 12 mph , 19 km/h
Temperature: 37°F , 3°C
Wind Chill: 29°F , -2°C
Dew Point: 10°F , -12°C
Humidity: 33%
Barometer: 30.41 inHg , 1029.8 hPa
Clouds: Clear
Visibility: 10 miles , 16 km
2015/03/29 15:52 KDCA 291552Z 35010KT 10SM CLR 03/M12 A3041 RMK AO2 SLP297 T00331122
 
KLNS - Lancaster, Pennsylvania, USA
Distance from station: N 49mi, 79km
Updated: Sun, 29-Mar-2015 11:53am EDT
Clear
Clear
 Wind from NNW
Wind: NNW 9 mph , 15 km/h, Gust: 22 mph , 35 km/h
Temperature: 36°F , 2°C
Wind Chill: 29°F , -2°C
Dew Point: 9°F , -13°C
Humidity: 32%
Barometer: 30.33 inHg , 1027.1 hPa
Clouds: Clear
Visibility: 10 miles , 16 km
2015/03/29 15:53 KLNS 291553Z 34008G19KT 10SM CLR 02/M13 A3033 RMK AO2 SLP277 T00171128
KILG - Wilmington, Delaware, USA
Distance from station: ENE 50mi, 81km
Updated: Sun, 29-Mar-2015 11:51am EDT
Clear
Clear
 Wind from N
Wind: N 9 mph , 15 km/h
Temperature: 37°F , 3°C
Wind Chill: 30°F , -1°C
Dew Point: 3°F , -16°C
Humidity: 23%
Barometer: 30.35 inHg , 1027.8 hPa
Clouds: Clear
Visibility: 10 miles , 16 km
2015/03/29 15:51 KILG 291551Z 35008KT 10SM CLR 03/M16 A3035 RMK AO2 SLP279 T00281161